createdAt,value
2017-11-01T00:02:26.602Z,43.00
2017-11-01T00:04:54.416Z,41.70
2017-11-01T00:07:22.233Z,43.40
2017-11-01T00:09:50.037Z,45.47
2017-11-01T00:12:17.859Z,45.43
2017-11-01T00:14:45.681Z,48.40
2017-11-01T00:17:13.515Z,45.67
2017-11-01T00:19:41.336Z,45.00
2017-11-01T00:22:09.182Z,46.20
2017-11-01T00:24:37.014Z,44.83
2017-11-01T00:27:04.961Z,47.40
2017-11-01T00:29:32.772Z,47.30
2017-11-01T00:32:00.620Z,48.67
2017-11-01T00:34:28.445Z,48.90
2017-11-01T00:36:56.281Z,47.63
2017-11-01T00:39:24.116Z,42.17
2017-11-01T00:41:51.916Z,45.40
2017-11-01T00:44:19.750Z,31.00
2017-11-01T00:46:47.576Z,45.50
2017-11-01T00:49:15.407Z,46.40
2017-11-01T00:51:43.226Z,41.13
2017-11-01T00:54:11.072Z,45.37
2017-11-01T00:56:38.894Z,44.47
2017-11-01T00:59:06.704Z,42.97
2017-11-01T01:01:34.529Z,44.10
2017-11-01T01:04:02.361Z,44.73
2017-11-01T01:06:30.169Z,41.33
2017-11-01T01:08:58.017Z,43.80
2017-11-01T01:11:25.850Z,48.13
2017-11-01T01:13:53.680Z,28.00
2017-11-01T01:16:21.494Z,45.63
2017-11-01T01:18:49.385Z,30.23
2017-11-01T01:21:17.211Z,27.57
2017-11-01T01:23:45.073Z,26.43
2017-11-01T01:26:12.899Z,45.30
2017-11-01T01:28:40.730Z,41.90
2017-11-01T01:31:08.572Z,39.07
2017-11-01T01:33:36.417Z,37.17
2017-11-01T01:36:04.267Z,41.43
2017-11-01T01:38:32.078Z,39.97
2017-11-01T01:40:59.948Z,38.83
2017-11-01T01:43:27.787Z,42.63
2017-11-01T01:45:55.611Z,40.70
2017-11-01T01:48:23.475Z,35.87
2017-11-01T01:50:51.308Z,39.37
2017-11-01T01:53:19.261Z,39.43
2017-11-01T01:55:47.109Z,43.50
2017-11-01T01:58:14.970Z,39.27
2017-11-01T02:00:42.824Z,35.67
2017-11-01T02:03:10.649Z,35.93
2017-11-01T02:05:38.471Z,41.67
2017-11-01T02:08:06.326Z,42.03
2017-11-01T02:10:34.150Z,37.60
2017-11-01T02:13:01.963Z,41.80
2017-11-01T02:15:29.805Z,37.77
2017-11-01T02:17:57.617Z,28.77
2017-11-01T02:20:25.424Z,35.90
2017-11-01T02:22:53.232Z,39.93
2017-11-01T02:25:21.093Z,39.30
2017-11-01T02:27:48.933Z,27.37
2017-11-01T02:30:16.781Z,40.97
2017-11-01T02:32:44.614Z,42.80
2017-11-01T02:35:12.461Z,30.73
2017-11-01T02:37:40.296Z,40.20
2017-11-01T02:40:08.100Z,37.17
2017-11-01T02:42:35.928Z,31.60
2017-11-01T02:45:03.759Z,32.50
2017-11-01T02:47:31.584Z,36.90
2017-11-01T02:49:59.400Z,30.03
2017-11-01T02:52:27.259Z,38.10
2017-11-01T02:54:55.100Z,38.80
2017-11-01T02:57:22.956Z,36.77
2017-11-01T02:59:50.818Z,39.40
2017-11-01T03:02:18.661Z,40.30
2017-11-01T03:04:51.025Z,27.07
2017-11-01T03:07:18.871Z,37.27
2017-11-01T03:09:46.705Z,32.90
2017-11-01T03:12:14.538Z,36.70
2017-11-01T03:14:42.368Z,39.83
2017-11-01T03:17:10.213Z,38.47
2017-11-01T03:19:38.041Z,26.97
2017-11-01T03:22:05.861Z,38.70
2017-11-01T03:24:33.712Z,37.97
2017-11-01T03:27:01.533Z,38.90
2017-11-01T03:29:29.384Z,42.03
2017-11-01T03:31:57.229Z,40.37
2017-11-01T03:34:25.090Z,38.77
2017-11-01T03:36:52.928Z,35.77
2017-11-01T03:39:20.769Z,23.97
2017-11-01T03:41:48.601Z,42.53
2017-11-01T03:44:16.429Z,42.43
2017-11-01T03:46:44.277Z,40.07
2017-11-01T03:49:12.125Z,39.57
2017-11-01T03:51:39.945Z,43.80
2017-11-01T03:54:07.813Z,42.33
2017-11-01T03:56:35.641Z,43.30
2017-11-01T03:59:03.460Z,43.63
2017-11-01T04:01:31.316Z,46.77
2017-11-01T04:03:59.163Z,42.57
2017-11-01T04:06:27.012Z,43.67
2017-11-01T04:08:54.858Z,40.77
2017-11-01T04:11:22.697Z,42.07
2017-11-01T04:13:50.513Z,39.63
2017-11-01T04:16:18.354Z,39.33
2017-11-01T04:18:52.172Z,39.37
2017-11-01T04:21:20.016Z,39.80
2017-11-01T04:23:47.900Z,33.90
2017-11-01T04:26:15.765Z,28.57
2017-11-01T04:28:43.585Z,37.70
2017-11-01T04:31:11.441Z,38.33
2017-11-01T04:33:39.272Z,42.90
2017-11-01T04:36:07.121Z,37.67
2017-11-01T04:38:34.965Z,38.40
2017-11-01T04:41:02.829Z,31.90
2017-11-01T04:43:30.662Z,39.97
2017-11-01T04:45:58.497Z,32.07
2017-11-01T04:48:26.329Z,37.57
2017-11-01T04:50:54.188Z,42.07
2017-11-01T04:53:22.018Z,37.40
2017-11-01T04:55:49.857Z,40.97
2017-11-01T04:58:17.724Z,42.83
2017-11-01T05:00:48.451Z,45.33
2017-11-01T05:03:16.314Z,31.43
2017-11-01T05:05:44.164Z,41.03
2017-11-01T05:08:18.010Z,43.50
2017-11-01T05:10:45.844Z,38.43
2017-11-01T05:13:19.627Z,29.67
2017-11-01T05:15:47.445Z,40.43
2017-11-01T05:18:15.284Z,35.40
2017-11-01T05:20:43.106Z,44.03
2017-11-01T05:23:17.867Z,37.80
2017-11-01T05:25:46.451Z,43.23
2017-11-01T05:28:14.313Z,38.13
2017-11-01T05:30:42.282Z,40.30
2017-11-01T05:33:10.144Z,42.00
2017-11-01T05:35:38.021Z,38.23
2017-11-01T05:38:05.966Z,33.00
2017-11-01T05:40:33.813Z,39.33
2017-11-01T05:43:01.669Z,38.17
2017-11-01T05:45:29.501Z,28.20
2017-11-01T05:47:57.345Z,37.83
2017-11-01T05:50:25.227Z,32.90
2017-11-01T05:52:53.076Z,33.27
2017-11-01T05:55:20.959Z,27.53
2017-11-01T05:57:48.798Z,36.73
2017-11-01T06:00:16.641Z,32.00
2017-11-01T06:02:44.471Z,37.77
2017-11-01T06:05:12.318Z,31.27
2017-11-01T06:07:40.144Z,35.80
2017-11-01T06:10:08.017Z,30.07
2017-11-01T06:12:35.877Z,34.80
2017-11-01T06:15:03.757Z,36.93
2017-11-01T06:17:31.630Z,35.77
2017-11-01T06:19:59.495Z,32.90
2017-11-01T06:22:29.411Z,36.30
2017-11-01T06:24:58.261Z,22.47
2017-11-01T06:27:26.114Z,28.50
2017-11-01T06:29:53.962Z,32.07
2017-11-01T06:32:21.808Z,36.03
2017-11-01T06:34:56.338Z,30.20
2017-11-01T06:37:24.281Z,32.10
2017-11-01T06:39:52.166Z,24.27
2017-11-01T06:42:20.058Z,30.83
2017-11-01T06:44:47.925Z,31.90
2017-11-01T06:47:15.771Z,32.83
2017-11-01T06:49:43.625Z,30.77
2017-11-01T06:52:11.489Z,36.23
2017-11-01T06:54:39.355Z,29.10
2017-11-01T06:57:07.221Z,32.33
2017-11-01T06:59:35.087Z,33.60
2017-11-01T07:02:02.916Z,33.90
2017-11-01T07:04:30.738Z,35.00
2017-11-01T07:06:59.385Z,35.03
2017-11-01T07:09:27.234Z,34.50
2017-11-01T07:11:55.079Z,29.83
2017-11-01T07:14:22.938Z,33.30
2017-11-01T07:16:50.807Z,30.70
2017-11-01T07:19:18.637Z,33.60
2017-11-01T07:21:46.477Z,32.37
2017-11-01T07:24:14.318Z,34.53
2017-11-01T07:26:42.244Z,32.53
2017-11-01T07:29:10.097Z,31.57
2017-11-01T07:31:37.980Z,32.07
2017-11-01T07:34:05.812Z,30.30
2017-11-01T07:36:33.652Z,32.63
2017-11-01T07:39:01.498Z,28.87
2017-11-01T07:41:29.318Z,33.20
2017-11-01T07:43:57.133Z,31.33
2017-11-01T07:46:24.952Z,30.53
2017-11-01T07:48:52.776Z,27.37
2017-11-01T07:51:20.599Z,32.10
2017-11-01T07:53:48.429Z,33.40
2017-11-01T07:56:16.288Z,33.40
2017-11-01T07:58:44.128Z,34.07
2017-11-01T08:01:11.979Z,34.80
2017-11-01T08:03:39.785Z,30.40
2017-11-01T08:06:07.611Z,31.30
2017-11-01T08:08:35.441Z,34.13
2017-11-01T08:11:03.280Z,29.37
2017-11-01T08:13:31.119Z,30.03
2017-11-01T08:15:58.941Z,22.07
2017-11-01T08:18:26.760Z,28.57
2017-11-01T08:20:54.617Z,29.37
2017-11-01T08:23:22.472Z,27.43
2017-11-01T08:25:50.330Z,30.60
2017-11-01T08:28:18.147Z,24.70
2017-11-01T08:30:45.997Z,21.07
2017-11-01T08:33:13.837Z,24.17
2017-11-01T08:35:41.660Z,26.40
2017-11-01T08:38:09.490Z,29.63
2017-11-01T08:40:37.307Z,27.00
2017-11-01T08:43:05.117Z,24.77
2017-11-01T08:45:32.987Z,27.13
2017-11-01T08:48:00.804Z,24.13
2017-11-01T08:50:28.689Z,20.83
2017-11-01T08:52:56.544Z,27.93
2017-11-01T08:55:24.388Z,27.60
2017-11-01T08:57:52.256Z,25.20
2017-11-01T09:00:20.077Z,27.37
2017-11-01T09:02:47.936Z,28.20
2017-11-01T09:05:15.749Z,26.30
2017-11-01T09:07:43.573Z,22.30
2017-11-01T09:10:11.393Z,21.83
2017-11-01T09:12:39.248Z,26.67
2017-11-01T09:15:07.076Z,24.67
2017-11-01T09:17:34.941Z,21.00
2017-11-01T09:20:02.754Z,24.60
2017-11-01T09:22:30.603Z,26.30
2017-11-01T09:24:58.396Z,23.07
2017-11-01T09:27:26.222Z,23.27
2017-11-01T09:29:54.073Z,26.50
2017-11-01T09:32:21.889Z,26.27
2017-11-01T09:34:49.752Z,22.87
2017-11-01T09:37:17.573Z,24.70
2017-11-01T09:39:45.417Z,25.47
2017-11-01T09:42:13.247Z,26.10
2017-11-01T09:44:41.079Z,25.27
2017-11-01T09:47:08.911Z,25.40
2017-11-01T09:49:36.752Z,22.63
2017-11-01T09:52:04.582Z,21.67
2017-11-01T09:54:32.413Z,23.37
2017-11-01T09:57:00.269Z,23.83
2017-11-01T09:59:28.135Z,22.43
2017-11-01T10:01:55.985Z,25.60
2017-11-01T10:04:23.824Z,27.10
2017-11-01T10:06:51.652Z,25.93
2017-11-01T10:09:19.481Z,23.40
2017-11-01T10:11:47.330Z,27.30
2017-11-01T10:14:15.145Z,20.00
2017-11-01T10:16:42.968Z,23.60
2017-11-01T10:19:10.798Z,25.47
2017-11-01T10:21:38.632Z,26.33
2017-11-01T10:24:06.456Z,25.60
2017-11-01T10:26:34.309Z,15.10
2017-11-01T10:29:02.132Z,23.83
2017-11-01T10:31:29.981Z,24.50
2017-11-01T10:33:57.811Z,26.80
2017-11-01T10:36:25.649Z,24.67
2017-11-01T10:38:53.481Z,25.70
2017-11-01T10:41:21.281Z,27.63
2017-11-01T10:43:49.085Z,24.57
2017-11-01T10:46:16.891Z,20.43
2017-11-01T10:48:44.704Z,26.40
2017-11-01T10:51:12.525Z,26.00
2017-11-01T10:53:40.333Z,23.23
2017-11-01T10:56:08.191Z,21.90
2017-11-01T10:58:36.016Z,27.30
2017-11-01T11:01:03.852Z,27.73
2017-11-01T11:03:31.686Z,20.20
2017-11-01T11:05:59.498Z,23.10
2017-11-01T11:08:27.307Z,28.13
2017-11-01T11:10:55.101Z,26.30
2017-11-01T11:13:22.905Z,23.63
2017-11-01T11:15:50.729Z,26.33
2017-11-01T11:18:18.562Z,20.70
2017-11-01T11:20:46.389Z,28.80
2017-11-01T11:23:14.229Z,19.73
2017-11-01T11:25:42.057Z,29.37
2017-11-01T11:28:09.865Z,29.00
2017-11-01T11:30:37.672Z,29.13
2017-11-01T11:33:05.536Z,26.90
2017-11-01T11:35:33.333Z,27.73
2017-11-01T11:38:01.188Z,22.77
2017-11-01T11:40:29.025Z,30.60
2017-11-01T11:42:56.853Z,25.90
2017-11-01T11:45:24.675Z,30.80
2017-11-01T11:47:52.503Z,26.50
2017-11-01T11:50:20.408Z,32.00
2017-11-01T11:52:48.319Z,32.90
2017-11-01T11:55:16.146Z,33.50
2017-11-01T11:57:43.981Z,32.73
2017-11-01T12:00:11.810Z,32.77
2017-11-01T12:02:39.642Z,32.80
2017-11-01T12:05:07.466Z,33.27
2017-11-01T12:07:35.284Z,28.90
2017-11-01T12:10:03.107Z,34.37
2017-11-01T12:12:30.962Z,31.23
2017-11-01T12:14:58.788Z,33.57
2017-11-01T12:17:26.617Z,27.37
2017-11-01T12:19:54.456Z,33.83
2017-11-01T12:22:22.278Z,32.43
2017-11-01T12:24:50.077Z,27.40
2017-11-01T12:27:16.795Z,30.13
2017-11-01T12:29:43.606Z,29.60
2017-11-01T12:32:09.663Z,34.13
2017-11-01T12:34:35.726Z,24.37
2017-11-01T12:37:01.802Z,33.57
2017-11-01T12:39:27.844Z,32.00
2017-11-01T12:41:53.909Z,35.30
2017-11-01T12:44:20.702Z,33.40
2017-11-01T12:46:46.743Z,31.10
2017-11-01T12:49:13.517Z,33.30
2017-11-01T12:51:39.553Z,29.40
2017-11-01T12:54:05.606Z,34.23
2017-11-01T12:56:31.645Z,31.23
2017-11-01T12:58:57.727Z,34.23
2017-11-01T13:01:23.792Z,32.03
2017-11-01T13:03:49.818Z,32.63
2017-11-01T13:06:15.869Z,31.20
2017-11-01T13:08:41.938Z,24.67
2017-11-01T13:11:08.727Z,32.97
2017-11-01T13:13:34.782Z,32.20
2017-11-01T13:16:01.566Z,35.07
2017-11-01T13:18:27.625Z,29.97
2017-11-01T13:20:53.688Z,34.70
2017-11-01T13:23:19.740Z,32.13
2017-11-01T13:25:45.825Z,33.20
2017-11-01T13:28:12.638Z,34.80
2017-11-01T13:30:38.696Z,33.87
2017-11-01T13:33:04.762Z,34.10
2017-11-01T13:35:30.822Z,25.57
2017-11-01T13:37:56.893Z,32.80
2017-11-01T13:40:22.942Z,29.43
2017-11-01T13:42:48.996Z,28.80
2017-11-01T13:45:15.070Z,33.00
2017-11-01T13:47:41.129Z,31.10
2017-11-01T13:50:07.222Z,33.70
2017-11-01T13:52:33.277Z,32.40
2017-11-01T13:54:59.343Z,36.20
2017-11-01T13:57:25.389Z,28.80
2017-11-01T13:59:51.449Z,34.80
2017-11-01T14:02:17.481Z,34.37
2017-11-01T14:04:43.554Z,34.30
2017-11-01T14:07:09.595Z,34.30
2017-11-01T14:09:35.670Z,28.73
2017-11-01T14:12:01.717Z,29.50
2017-11-01T14:14:28.522Z,31.77
2017-11-01T14:16:54.585Z,25.03
2017-11-01T14:19:20.653Z,33.60
2017-11-01T14:21:46.702Z,34.00
2017-11-01T14:24:12.770Z,33.83
2017-11-01T14:26:38.825Z,28.37
2017-11-01T14:29:04.890Z,32.90
2017-11-01T14:31:30.975Z,26.07
2017-11-01T14:33:57.040Z,31.17
2017-11-01T14:36:23.832Z,32.93
2017-11-01T14:38:49.884Z,35.00
2017-11-01T14:41:15.953Z,34.90
2017-11-01T14:43:42.006Z,28.20
2017-11-01T14:46:08.103Z,38.77
2017-11-01T14:48:34.186Z,37.90
2017-11-01T14:51:00.246Z,28.43
2017-11-01T14:53:26.300Z,39.07
2017-11-01T14:55:52.343Z,38.83
2017-11-01T14:58:18.374Z,37.40
2017-11-01T15:00:44.422Z,41.17
2017-11-01T15:03:10.485Z,38.43
2017-11-01T15:05:36.570Z,26.57
2017-11-01T15:08:03.365Z,36.70
2017-11-01T15:10:29.412Z,34.33
2017-11-01T15:12:56.223Z,47.07
2017-11-01T15:15:23.026Z,41.10
2017-11-01T15:17:49.086Z,40.70
2017-11-01T15:20:15.157Z,54.03
2017-11-01T15:22:41.182Z,56.93
2017-11-01T15:25:07.213Z,48.60
2017-11-01T15:27:33.290Z,46.80
2017-11-01T15:29:59.325Z,40.77
2017-11-01T15:32:25.395Z,39.97
2017-11-01T15:34:51.449Z,41.87
2017-11-01T15:37:17.497Z,39.67
2017-11-01T15:39:43.546Z,43.37
2017-11-01T15:42:10.345Z,43.90
2017-11-01T15:44:36.382Z,36.60
2017-11-01T15:47:03.173Z,41.00
2017-11-01T15:49:29.218Z,34.13
2017-11-01T15:51:56.020Z,47.37
2017-11-01T15:54:22.081Z,49.10
2017-11-01T15:56:48.125Z,47.77
2017-11-01T15:59:14.194Z,49.77
2017-11-01T16:01:40.253Z,132.30
2017-11-01T16:04:06.302Z,60.57
2017-11-01T16:06:33.086Z,56.90
2017-11-01T16:08:59.146Z,85.20
2017-11-01T16:11:25.211Z,39.40
2017-11-01T16:13:51.327Z,59.03
2017-11-01T16:16:17.384Z,41.87
2017-11-01T16:18:44.249Z,56.53
2017-11-01T16:21:10.318Z,45.20
2017-11-01T16:23:36.398Z,39.47
2017-11-01T16:26:03.212Z,59.60
2017-11-01T16:28:29.314Z,58.53
2017-11-01T16:30:55.358Z,55.10
2017-11-01T16:33:22.154Z,42.57
2017-11-01T16:35:48.218Z,55.63
2017-11-01T16:38:14.270Z,80.83
2017-11-01T16:40:40.326Z,66.03
2017-11-01T16:43:06.615Z,58.67
2017-11-01T16:45:33.425Z,61.50
2017-11-01T16:47:59.492Z,59.27
2017-11-01T16:50:25.558Z,59.50
2017-11-01T16:52:51.598Z,53.97
2017-11-01T16:55:17.646Z,54.27
2017-11-01T16:57:43.713Z,39.90
2017-11-01T17:00:09.779Z,52.67
2017-11-01T17:02:35.905Z,40.80
2017-11-01T17:05:02.706Z,54.63
2017-11-01T17:07:28.749Z,56.00
2017-11-01T17:09:55.579Z,56.13
2017-11-01T17:12:21.648Z,58.20
2017-11-01T17:14:47.705Z,57.43
2017-11-01T17:17:14.482Z,53.60
2017-11-01T17:19:42.531Z,55.33
2017-11-01T17:22:08.757Z,36.90
2017-11-01T17:24:34.804Z,51.87
2017-11-01T17:27:01.585Z,54.13
2017-11-01T17:29:27.650Z,55.63
2017-11-01T17:31:53.730Z,46.83
2017-11-01T17:34:20.548Z,52.50
2017-11-01T17:36:47.379Z,48.37
2017-11-01T17:39:13.436Z,53.03
2017-11-01T17:41:39.504Z,52.50
2017-11-01T17:44:05.529Z,41.77
2017-11-01T17:46:32.370Z,50.77
2017-11-01T17:48:58.443Z,51.10
2017-11-01T17:51:25.257Z,29.00
2017-11-01T17:53:51.326Z,46.80
2017-11-01T17:56:17.387Z,49.87
2017-11-01T17:58:43.438Z,47.13
2017-11-01T18:01:09.493Z,51.73
2017-11-01T18:03:35.621Z,34.37
2017-11-01T18:06:01.674Z,43.37
2017-11-01T18:08:27.717Z,47.57
2017-11-01T18:10:53.769Z,42.80
2017-11-01T18:13:19.826Z,45.87
2017-11-01T18:15:45.892Z,47.20
2017-11-01T18:18:11.936Z,44.03
2017-11-01T18:20:38.015Z,45.20
2017-11-01T18:23:04.061Z,47.00
2017-11-01T18:25:30.106Z,50.43
2017-11-01T18:27:56.209Z,41.17
2017-11-01T18:36:41.771Z,47.63
2017-11-01T18:51:40.069Z,38.80
2017-11-01T18:54:07.791Z,50.17
2017-11-01T19:06:04.275Z,48.40
2017-11-01T19:11:30.969Z,37.77
2017-11-01T19:27:09.895Z,47.33
2017-11-01T19:38:48.171Z,47.13
2017-11-01T19:47:36.320Z,50.10
2017-11-01T19:50:02.644Z,50.43
2017-11-01T19:52:39.482Z,52.70
2017-11-01T19:55:23.043Z,50.13
2017-11-01T19:57:49.477Z,41.27
2017-11-01T20:00:16.305Z,54.13
2017-11-01T20:05:41.427Z,41.53
2017-11-01T20:11:09.216Z,48.70
2017-11-01T20:29:08.547Z,52.03
2017-11-01T20:32:04.664Z,55.87
2017-11-01T20:43:07.687Z,50.10
2017-11-01T20:45:33.932Z,52.10
2017-11-01T20:54:18.466Z,49.07
2017-11-01T20:56:45.914Z,50.77
2017-11-01T20:59:12.380Z,50.47
2017-11-01T21:01:39.717Z,53.77
2017-11-01T21:04:09.768Z,37.00
2017-11-01T21:09:47.873Z,50.20
2017-11-01T21:12:14.243Z,43.47
2017-11-01T21:20:43.244Z,50.43
2017-11-01T21:29:19.362Z,36.10
2017-11-01T21:34:51.111Z,53.67
2017-11-01T21:40:24.538Z,54.83
2017-11-01T21:43:13.311Z,62.10
